sensor_id;sensor_type;location;lat;lon;timestamp;temperature;humidity
25300;DHT22;13241;51.208;4.432;2023-10-09T00:01:44;17.40;99.90
25300;DHT22;13241;51.208;4.432;2023-10-09T00:04:13;17.40;99.90
25300;DHT22;13241;51.208;4.432;2023-10-09T00:06:43;17.50;99.90
25300;DHT22;13241;51.208;4.432;2023-10-09T00:09:11;17.50;99.90
25300;DHT22;13241;51.208;4.432;2023-10-09T00:11:51;17.50;99.90
25300;DHT22;13241;51.208;4.432;2023-10-09T00:14:25;17.50;99.90
25300;DHT22;13241;51.208;4.432;2023-10-09T00:16:53;17.50;99.90
25300;DHT22;13241;51.208;4.432;2023-10-09T00:19:49;17.60;99.90
25300;DHT22;13241;51.208;4.432;2023-10-09T00:22:18;17.60;99.90
25300;DHT22;13241;51.208;4.432;2023-10-09T00:24:52;17.60;99.90
25300;DHT22;13241;51.208;4.432;2023-10-09T00:27:41;17.60;99.90
25300;DHT22;13241;51.208;4.432;2023-10-09T00:30:13;17.60;99.90
25300;DHT22;13241;51.208;4.432;2023-10-09T00:32:45;17.60;99.90
25300;DHT22;13241;51.208;4.432;2023-10-09T00:35:19;17.60;99.90
25300;DHT22;13241;51.208;4.432;2023-10-09T00:38:06;17.60;99.90
25300;DHT22;13241;51.208;4.432;2023-10-09T00:40:52;17.50;99.90
25300;DHT22;13241;51.208;4.432;2023-10-09T00:43:39;17.50;99.90
25300;DHT22;13241;51.208;4.432;2023-10-09T00:46:10;17.50;99.90
25300;DHT22;13241;51.208;4.432;2023-10-09T00:48:39;17.50;99.90
25300;DHT22;13241;51.208;4.432;2023-10-09T00:51:07;17.50;99.90
25300;DHT22;13241;51.208;4.432;2023-10-09T00:53:49;17.60;99.90
25300;DHT22;13241;51.208;4.432;2023-10-09T00:56:20;17.50;99.90
25300;DHT22;13241;51.208;4.432;2023-10-09T00:58:59;17.50;99.90
25300;DHT22;13241;51.208;4.432;2023-10-09T01:01:27;17.50;99.90
25300;DHT22;13241;51.208;4.432;2023-10-09T01:04:01;17.50;99.90
25300;DHT22;13241;51.208;4.432;2023-10-09T01:06:44;17.50;99.90
25300;DHT22;13241;51.208;4.432;2023-10-09T01:09:12;17.50;99.90
25300;DHT22;13241;51.208;4.432;2023-10-09T01:11:41;17.50;99.90
25300;DHT22;13241;51.208;4.432;2023-10-09T01:14:27;17.50;99.90
25300;DHT22;13241;51.208;4.432;2023-10-09T01:16:54;17.50;99.90
25300;DHT22;13241;51.208;4.432;2023-10-09T01:19:21;17.60;99.90
25300;DHT22;13241;51.208;4.432;2023-10-09T01:21:51;17.60;99.90
25300;DHT22;13241;51.208;4.432;2023-10-09T01:24:19;17.60;99.90
25300;DHT22;13241;51.208;4.432;2023-10-09T01:26:47;17.60;99.90
25300;DHT22;13241;51.208;4.432;2023-10-09T01:29:23;17.70;99.90
25300;DHT22;13241;51.208;4.432;2023-10-09T01:31:55;17.70;99.90
25300;DHT22;13241;51.208;4.432;2023-10-09T01:34:28;17.70;99.90
25300;DHT22;13241;51.208;4.432;2023-10-09T01:37:15;17.70;99.90
25300;DHT22;13241;51.208;4.432;2023-10-09T01:39:54;17.70;99.90
25300;DHT22;13241;51.208;4.432;2023-10-09T01:42:25;17.70;99.90
25300;DHT22;13241;51.208;4.432;2023-10-09T01:45:12;17.60;99.90
25300;DHT22;13241;51.208;4.432;2023-10-09T01:47:54;17.60;99.90
25300;DHT22;13241;51.208;4.432;2023-10-09T01:50:22;17.60;99.90
25300;DHT22;13241;51.208;4.432;2023-10-09T01:52:51;17.50;99.90
25300;DHT22;13241;51.208;4.432;2023-10-09T01:55:19;17.50;99.90
25300;DHT22;13241;51.208;4.432;2023-10-09T01:58:15;17.40;99.90
25300;DHT22;13241;51.208;4.432;2023-10-09T02:00:48;17.40;99.90
25300;DHT22;13241;51.208;4.432;2023-10-09T02:03:17;17.40;99.90
25300;DHT22;13241;51.208;4.432;2023-10-09T02:05:45;17.30;99.90
25300;DHT22;13241;51.208;4.432;2023-10-09T02:08:12;17.30;99.90
25300;DHT22;13241;51.208;4.432;2023-10-09T02:10:39;17.20;99.90
25300;DHT22;13241;51.208;4.432;2023-10-09T02:13:07;17.20;99.90
25300;DHT22;13241;51.208;4.432;2023-10-09T02:15:38;17.20;99.90
25300;DHT22;13241;51.208;4.432;2023-10-09T02:18:16;17.10;99.90
25300;DHT22;13241;51.208;4.432;2023-10-09T02:20:44;17.10;99.90
25300;DHT22;13241;51.208;4.432;2023-10-09T02:23:15;17.20;99.90
25300;DHT22;13241;51.208;4.432;2023-10-09T02:25:47;17.20;99.90
25300;DHT22;13241;51.208;4.432;2023-10-09T02:28:19;17.10;99.90
25300;DHT22;13241;51.208;4.432;2023-10-09T02:30:46;17.10;99.90
25300;DHT22;13241;51.208;4.432;2023-10-09T02:33:18;17.10;99.90
25300;DHT22;13241;51.208;4.432;2023-10-09T02:35:47;17.10;99.90
25300;DHT22;13241;51.208;4.432;2023-10-09T02:38:18;17.10;99.90
25300;DHT22;13241;51.208;4.432;2023-10-09T02:40:52;17.10;99.90
25300;DHT22;13241;51.208;4.432;2023-10-09T02:43:35;17.00;99.90
25300;DHT22;13241;51.208;4.432;2023-10-09T02:46:12;17.00;99.90
25300;DHT22;13241;51.208;4.432;2023-10-09T02:48:40;17.00;99.90
25300;DHT22;13241;51.208;4.432;2023-10-09T02:51:15;17.00;99.90
25300;DHT22;13241;51.208;4.432;2023-10-09T02:54:01;17.00;99.90
25300;DHT22;13241;51.208;4.432;2023-10-09T02:56:35;17.00;99.90
25300;DHT22;13241;51.208;4.432;2023-10-09T02:59:14;17.00;99.90
25300;DHT22;13241;51.208;4.432;2023-10-09T03:01:41;17.00;99.90
25300;DHT22;13241;51.208;4.432;2023-10-09T03:04:08;16.90;99.90
25300;DHT22;13241;51.208;4.432;2023-10-09T03:06:38;16.90;99.90
25300;DHT22;13241;51.208;4.432;2023-10-09T03:09:10;17.00;99.90
25300;DHT22;13241;51.208;4.432;2023-10-09T03:11:44;17.00;99.90
25300;DHT22;13241;51.208;4.432;2023-10-09T03:14:13;16.90;99.90
25300;DHT22;13241;51.208;4.432;2023-10-09T03:16:41;16.90;99.90
25300;DHT22;13241;51.208;4.432;2023-10-09T03:19:08;16.90;99.90
25300;DHT22;13241;51.208;4.432;2023-10-09T03:21:37;16.80;99.90
25300;DHT22;13241;51.208;4.432;2023-10-09T03:24:04;16.80;99.90
25300;DHT22;13241;51.208;4.432;2023-10-09T03:26:32;16.70;99.90
25300;DHT22;13241;51.208;4.432;2023-10-09T03:28:59;16.80;99.90
25300;DHT22;13241;51.208;4.432;2023-10-09T03:31:28;16.90;99.90
25300;DHT22;13241;51.208;4.432;2023-10-09T03:33:57;16.90;99.90
25300;DHT22;13241;51.208;4.432;2023-10-09T03:36:24;16.90;99.90
25300;DHT22;13241;51.208;4.432;2023-10-09T03:38:53;16.80;99.90
25300;DHT22;13241;51.208;4.432;2023-10-09T03:41:22;16.80;99.90
25300;DHT22;13241;51.208;4.432;2023-10-09T03:43:50;16.80;99.90
25300;DHT22;13241;51.208;4.432;2023-10-09T03:46:17;16.80;99.90
25300;DHT22;13241;51.208;4.432;2023-10-09T03:49:03;16.80;99.90
25300;DHT22;13241;51.208;4.432;2023-10-09T03:51:37;16.80;99.90
25300;DHT22;13241;51.208;4.432;2023-10-09T03:54:06;16.80;99.90
25300;DHT22;13241;51.208;4.432;2023-10-09T03:56:35;16.80;99.90
25300;DHT22;13241;51.208;4.432;2023-10-09T03:59:02;16.80;99.90
25300;DHT22;13241;51.208;4.432;2023-10-09T04:01:31;16.80;99.90
25300;DHT22;13241;51.208;4.432;2023-10-09T04:04:07;16.80;99.90
25300;DHT22;13241;51.208;4.432;2023-10-09T04:06:37;16.80;99.90
25300;DHT22;13241;51.208;4.432;2023-10-09T04:09:07;16.80;99.90
25300;DHT22;13241;51.208;4.432;2023-10-09T04:11:47;16.80;99.90
25300;DHT22;13241;51.208;4.432;2023-10-09T04:14:14;16.70;99.90
25300;DHT22;13241;51.208;4.432;2023-10-09T04:16:51;16.80;99.90
25300;DHT22;13241;51.208;4.432;2023-10-09T04:19:18;16.80;99.90
25300;DHT22;13241;51.208;4.432;2023-10-09T04:21:49;16.70;99.90
25300;DHT22;13241;51.208;4.432;2023-10-09T04:24:15;16.70;99.90
25300;DHT22;13241;51.208;4.432;2023-10-09T04:26:44;16.70;99.90
25300;DHT22;13241;51.208;4.432;2023-10-09T04:29:15;16.60;99.90
25300;DHT22;13241;51.208;4.432;2023-10-09T04:31:56;16.60;99.90
25300;DHT22;13241;51.208;4.432;2023-10-09T04:34:23;16.60;99.90
25300;DHT22;13241;51.208;4.432;2023-10-09T04:37:03;16.70;99.90
25300;DHT22;13241;51.208;4.432;2023-10-09T04:39:50;16.70;99.90
25300;DHT22;13241;51.208;4.432;2023-10-09T04:42:28;16.70;99.90
25300;DHT22;13241;51.208;4.432;2023-10-09T04:45:07;16.60;99.90
25300;DHT22;13241;51.208;4.432;2023-10-09T04:47:36;16.60;99.90
25300;DHT22;13241;51.208;4.432;2023-10-09T04:50:08;16.60;99.90
25300;DHT22;13241;51.208;4.432;2023-10-09T04:52:37;16.60;99.90
25300;DHT22;13241;51.208;4.432;2023-10-09T04:55:05;16.60;99.90
25300;DHT22;13241;51.208;4.432;2023-10-09T04:57:40;16.60;99.90
25300;DHT22;13241;51.208;4.432;2023-10-09T05:00:14;16.50;99.90
25300;DHT22;13241;51.208;4.432;2023-10-09T05:02:50;16.50;99.90
25300;DHT22;13241;51.208;4.432;2023-10-09T05:05:22;16.50;99.90
25300;DHT22;13241;51.208;4.432;2023-10-09T05:08:05;16.50;99.90
25300;DHT22;13241;51.208;4.432;2023-10-09T05:10:53;16.50;99.90
25300;DHT22;13241;51.208;4.432;2023-10-09T05:13:34;16.40;99.90
25300;DHT22;13241;51.208;4.432;2023-10-09T05:18:46;16.40;99.90
25300;DHT22;13241;51.208;4.432;2023-10-09T05:21:37;16.40;99.90
25300;DHT22;13241;51.208;4.432;2023-10-09T05:24:14;16.40;99.90
25300;DHT22;13241;51.208;4.432;2023-10-09T05:26:49;16.40;99.90
25300;DHT22;13241;51.208;4.432;2023-10-09T05:29:26;16.40;99.90
25300;DHT22;13241;51.208;4.432;2023-10-09T05:31:56;16.40;99.90
25300;DHT22;13241;51.208;4.432;2023-10-09T05:34:24;16.40;99.90
25300;DHT22;13241;51.208;4.432;2023-10-09T05:37:02;16.40;99.90
25300;DHT22;13241;51.208;4.432;2023-10-09T05:39:49;16.40;99.90
25300;DHT22;13241;51.208;4.432;2023-10-09T05:45:16;16.40;99.90
25300;DHT22;13241;51.208;4.432;2023-10-09T05:48:01;16.50;99.90
25300;DHT22;13241;51.208;4.432;2023-10-09T05:50:32;16.50;99.90
25300;DHT22;13241;51.208;4.432;2023-10-09T05:53:02;16.50;99.90
25300;DHT22;13241;51.208;4.432;2023-10-09T05:55:30;16.50;99.90
25300;DHT22;13241;51.208;4.432;2023-10-09T05:58:35;16.50;99.90
25300;DHT22;13241;51.208;4.432;2023-10-09T06:01:20;16.50;99.90
25300;DHT22;13241;51.208;4.432;2023-10-09T06:04:06;16.50;99.90
25300;DHT22;13241;51.208;4.432;2023-10-09T06:06:43;16.40;99.90
25300;DHT22;13241;51.208;4.432;2023-10-09T06:09:22;16.40;99.90
25300;DHT22;13241;51.208;4.432;2023-10-09T06:12:09;16.50;99.90
25300;DHT22;13241;51.208;4.432;2023-10-09T06:14:55;16.50;99.90
25300;DHT22;13241;51.208;4.432;2023-10-09T06:17:25;16.50;99.90
25300;DHT22;13241;51.208;4.432;2023-10-09T06:19:54;16.60;99.90
25300;DHT22;13241;51.208;4.432;2023-10-09T06:22:47;16.60;99.90
25300;DHT22;13241;51.208;4.432;2023-10-09T06:25:23;16.60;99.90
25300;DHT22;13241;51.208;4.432;2023-10-09T06:27:59;16.60;99.90
25300;DHT22;13241;51.208;4.432;2023-10-09T06:30:26;16.70;99.90
25300;DHT22;13241;51.208;4.432;2023-10-09T06:32:54;16.70;99.90
25300;DHT22;13241;51.208;4.432;2023-10-09T06:35:40;16.70;99.90
25300;DHT22;13241;51.208;4.432;2023-10-09T06:38:15;16.70;99.90
25300;DHT22;13241;51.208;4.432;2023-10-09T06:41:00;16.70;99.90
25300;DHT22;13241;51.208;4.432;2023-10-09T06:43:33;16.70;99.90
25300;DHT22;13241;51.208;4.432;2023-10-09T06:46:03;16.70;99.90
25300;DHT22;13241;51.208;4.432;2023-10-09T06:48:48;16.70;99.90
25300;DHT22;13241;51.208;4.432;2023-10-09T06:51:26;16.70;99.90
25300;DHT22;13241;51.208;4.432;2023-10-09T06:53:57;16.80;99.90
25300;DHT22;13241;51.208;4.432;2023-10-09T06:56:29;16.80;99.90
25300;DHT22;13241;51.208;4.432;2023-10-09T06:59:00;16.80;99.90
25300;DHT22;13241;51.208;4.432;2023-10-09T07:01:48;16.80;99.90
25300;DHT22;13241;51.208;4.432;2023-10-09T07:04:37;16.80;99.90
25300;DHT22;13241;51.208;4.432;2023-10-09T07:07:05;16.80;99.90
25300;DHT22;13241;51.208;4.432;2023-10-09T07:09:37;16.90;99.90
25300;DHT22;13241;51.208;4.432;2023-10-09T07:12:10;16.90;99.90
25300;DHT22;13241;51.208;4.432;2023-10-09T07:14:47;17.00;99.90
25300;DHT22;13241;51.208;4.432;2023-10-09T07:17:14;17.00;99.90
25300;DHT22;13241;51.208;4.432;2023-10-09T07:19:53;17.10;99.90
25300;DHT22;13241;51.208;4.432;2023-10-09T07:22:21;17.20;99.90
25300;DHT22;13241;51.208;4.432;2023-10-09T07:24:49;17.40;99.90
25300;DHT22;13241;51.208;4.432;2023-10-09T07:27:17;17.50;99.90
25300;DHT22;13241;51.208;4.432;2023-10-09T07:29:45;17.60;99.90
25300;DHT22;13241;51.208;4.432;2023-10-09T07:32:15;17.70;99.90
25300;DHT22;13241;51.208;4.432;2023-10-09T07:34:51;17.80;99.90
25300;DHT22;13241;51.208;4.432;2023-10-09T07:37:22;17.80;99.90
25300;DHT22;13241;51.208;4.432;2023-10-09T07:39:52;17.80;99.90
25300;DHT22;13241;51.208;4.432;2023-10-09T07:42:25;17.80;99.90
25300;DHT22;13241;51.208;4.432;2023-10-09T07:45:05;17.80;99.90
25300;DHT22;13241;51.208;4.432;2023-10-09T07:47:59;17.80;99.90
25300;DHT22;13241;51.208;4.432;2023-10-09T07:50:27;17.70;99.90
25300;DHT22;13241;51.208;4.432;2023-10-09T07:53:06;17.70;99.90
25300;DHT22;13241;51.208;4.432;2023-10-09T07:55:45;17.80;99.90
25300;DHT22;13241;51.208;4.432;2023-10-09T07:58:24;17.80;99.90
25300;DHT22;13241;51.208;4.432;2023-10-09T08:00:56;17.90;99.90
25300;DHT22;13241;51.208;4.432;2023-10-09T08:03:43;18.00;99.90
25300;DHT22;13241;51.208;4.432;2023-10-09T08:06:16;18.00;99.90
25300;DHT22;13241;51.208;4.432;2023-10-09T08:09:02;18.10;99.90
25300;DHT22;13241;51.208;4.432;2023-10-09T08:11:32;18.10;99.90
25300;DHT22;13241;51.208;4.432;2023-10-09T08:14:22;18.10;99.90
25300;DHT22;13241;51.208;4.432;2023-10-09T08:17:01;18.20;99.90
25300;DHT22;13241;51.208;4.432;2023-10-09T08:19:49;18.30;99.90
25300;DHT22;13241;51.208;4.432;2023-10-09T08:22:26;18.40;99.90
25300;DHT22;13241;51.208;4.432;2023-10-09T08:24:53;18.60;99.90
25300;DHT22;13241;51.208;4.432;2023-10-09T08:27:26;18.70;99.90
25300;DHT22;13241;51.208;4.432;2023-10-09T08:32:46;18.90;99.90
25300;DHT22;13241;51.208;4.432;2023-10-09T08:35:55;19.00;99.90
25300;DHT22;13241;51.208;4.432;2023-10-09T08:38:30;19.00;99.90
25300;DHT22;13241;51.208;4.432;2023-10-09T08:41:12;18.90;99.90
25300;DHT22;13241;51.208;4.432;2023-10-09T08:43:52;19.00;99.90
25300;DHT22;13241;51.208;4.432;2023-10-09T08:46:25;19.10;99.90
25300;DHT22;13241;51.208;4.432;2023-10-09T08:48:57;19.30;99.90
25300;DHT22;13241;51.208;4.432;2023-10-09T08:51:27;19.40;99.90
25300;DHT22;13241;51.208;4.432;2023-10-09T08:53:55;19.60;99.90
25300;DHT22;13241;51.208;4.432;2023-10-09T08:56:22;19.60;99.90
25300;DHT22;13241;51.208;4.432;2023-10-09T08:58:51;19.70;99.90
25300;DHT22;13241;51.208;4.432;2023-10-09T09:01:19;19.80;99.90
25300;DHT22;13241;51.208;4.432;2023-10-09T09:03:49;19.90;99.90
25300;DHT22;13241;51.208;4.432;2023-10-09T09:06:20;20.00;99.90
25300;DHT22;13241;51.208;4.432;2023-10-09T09:08:47;19.90;99.90
25300;DHT22;13241;51.208;4.432;2023-10-09T09:11:16;20.00;99.90
25300;DHT22;13241;51.208;4.432;2023-10-09T09:16:25;20.00;99.90
25300;DHT22;13241;51.208;4.432;2023-10-09T09:19:03;20.10;99.90
25300;DHT22;13241;51.208;4.432;2023-10-09T09:21:37;20.20;99.90
25300;DHT22;13241;51.208;4.432;2023-10-09T09:24:09;20.20;99.90
25300;DHT22;13241;51.208;4.432;2023-10-09T09:26:49;20.30;99.90
25300;DHT22;13241;51.208;4.432;2023-10-09T09:32:06;20.50;99.90
25300;DHT22;13241;51.208;4.432;2023-10-09T09:34:47;20.50;99.90
25300;DHT22;13241;51.208;4.432;2023-10-09T09:37:24;20.40;99.90
25300;DHT22;13241;51.208;4.432;2023-10-09T09:39:58;20.50;99.90
25300;DHT22;13241;51.208;4.432;2023-10-09T09:42:27;20.60;99.90
25300;DHT22;13241;51.208;4.432;2023-10-09T09:45:02;20.70;99.90
25300;DHT22;13241;51.208;4.432;2023-10-09T09:47:31;20.70;99.90
25300;DHT22;13241;51.208;4.432;2023-10-09T09:50:04;20.70;99.90
25300;DHT22;13241;51.208;4.432;2023-10-09T09:52:39;20.70;99.90
25300;DHT22;13241;51.208;4.432;2023-10-09T09:55:11;20.80;99.90
25300;DHT22;13241;51.208;4.432;2023-10-09T09:57:49;20.80;99.90
25300;DHT22;13241;51.208;4.432;2023-10-09T10:00:26;20.90;99.90
25300;DHT22;13241;51.208;4.432;2023-10-09T10:03:12;21.00;99.90
25300;DHT22;13241;51.208;4.432;2023-10-09T10:05:42;21.40;99.90
25300;DHT22;13241;51.208;4.432;2023-10-09T10:08:20;21.70;99.90
25300;DHT22;13241;51.208;4.432;2023-10-09T10:10:48;22.00;99.90
25300;DHT22;13241;51.208;4.432;2023-10-09T10:13:54;22.10;99.90
25300;DHT22;13241;51.208;4.432;2023-10-09T10:16:26;22.10;99.90
25300;DHT22;13241;51.208;4.432;2023-10-09T10:19:03;22.00;99.90
25300;DHT22;13241;51.208;4.432;2023-10-09T10:21:45;22.00;99.90
25300;DHT22;13241;51.208;4.432;2023-10-09T10:29:47;21.70;99.90
25300;DHT22;13241;51.208;4.432;2023-10-09T10:32:53;21.60;99.90
25300;DHT22;13241;51.208;4.432;2023-10-09T10:35:21;21.70;99.90
25300;DHT22;13241;51.208;4.432;2023-10-09T10:38:31;21.80;99.90
25300;DHT22;13241;51.208;4.432;2023-10-09T10:41:12;21.70;99.90
25300;DHT22;13241;51.208;4.432;2023-10-09T10:43:44;21.80;99.90
25300;DHT22;13241;51.208;4.432;2023-10-09T10:46:18;21.90;99.90
25300;DHT22;13241;51.208;4.432;2023-10-09T10:49:08;22.00;99.90
25300;DHT22;13241;51.208;4.432;2023-10-09T10:51:50;22.10;99.90
25300;DHT22;13241;51.208;4.432;2023-10-09T10:54:37;22.10;99.90
25300;DHT22;13241;51.208;4.432;2023-10-09T10:57:16;22.10;99.90
25300;DHT22;13241;51.208;4.432;2023-10-09T10:59:46;22.10;99.90
25300;DHT22;13241;51.208;4.432;2023-10-09T11:02:18;22.20;99.90
25300;DHT22;13241;51.208;4.432;2023-10-09T11:04:50;22.40;99.90
25300;DHT22;13241;51.208;4.432;2023-10-09T11:07:37;22.50;99.90
25300;DHT22;13241;51.208;4.432;2023-10-09T11:10:05;22.60;99.90
25300;DHT22;13241;51.208;4.432;2023-10-09T11:12:42;22.70;99.90
25300;DHT22;13241;51.208;4.432;2023-10-09T11:15:13;22.60;99.90
25300;DHT22;13241;51.208;4.432;2023-10-09T11:18:02;22.40;99.90
25300;DHT22;13241;51.208;4.432;2023-10-09T11:20:36;22.20;99.90
25300;DHT22;13241;51.208;4.432;2023-10-09T11:23:05;22.20;99.90
25300;DHT22;13241;51.208;4.432;2023-10-09T11:25:43;22.20;99.90
25300;DHT22;13241;51.208;4.432;2023-10-09T11:31:13;22.50;99.90
25300;DHT22;13241;51.208;4.432;2023-10-09T11:33:50;22.60;99.90
25300;DHT22;13241;51.208;4.432;2023-10-09T11:36:22;22.70;99.90
25300;DHT22;13241;51.208;4.432;2023-10-09T11:38:59;22.70;99.90
25300;DHT22;13241;51.208;4.432;2023-10-09T11:41:46;22.80;99.90
25300;DHT22;13241;51.208;4.432;2023-10-09T11:44:16;22.70;99.90
25300;DHT22;13241;51.208;4.432;2023-10-09T11:47:01;22.70;99.90
25300;DHT22;13241;51.208;4.432;2023-10-09T11:52:23;22.40;99.90
25300;DHT22;13241;51.208;4.432;2023-10-09T11:55:05;22.40;99.90
25300;DHT22;13241;51.208;4.432;2023-10-09T11:57:42;22.30;99.90
25300;DHT22;13241;51.208;4.432;2023-10-09T12:00:09;22.30;99.90
25300;DHT22;13241;51.208;4.432;2023-10-09T12:02:55;22.50;99.90
25300;DHT22;13241;51.208;4.432;2023-10-09T12:05:23;22.50;99.90
25300;DHT22;13241;51.208;4.432;2023-10-09T12:07:54;22.70;99.90
25300;DHT22;13241;51.208;4.432;2023-10-09T12:10:24;22.80;99.90
25300;DHT22;13241;51.208;4.432;2023-10-09T12:12:54;22.90;99.90
25300;DHT22;13241;51.208;4.432;2023-10-09T12:15:24;23.00;99.90
25300;DHT22;13241;51.208;4.432;2023-10-09T12:17:51;23.00;99.90
25300;DHT22;13241;51.208;4.432;2023-10-09T12:20:20;23.00;99.90
25300;DHT22;13241;51.208;4.432;2023-10-09T12:23:14;23.10;99.90
25300;DHT22;13241;51.208;4.432;2023-10-09T12:25:41;23.20;99.90
25300;DHT22;13241;51.208;4.432;2023-10-09T12:28:11;23.20;99.90
25300;DHT22;13241;51.208;4.432;2023-10-09T12:30:41;23.10;99.90
25300;DHT22;13241;51.208;4.432;2023-10-09T12:33:08;23.00;99.90
25300;DHT22;13241;51.208;4.432;2023-10-09T12:35:39;22.90;99.90
25300;DHT22;13241;51.208;4.432;2023-10-09T12:38:08;22.80;99.90
25300;DHT22;13241;51.208;4.432;2023-10-09T12:40:39;22.90;99.90
25300;DHT22;13241;51.208;4.432;2023-10-09T12:43:09;22.70;99.90
25300;DHT22;13241;51.208;4.432;2023-10-09T12:45:43;22.80;99.90
25300;DHT22;13241;51.208;4.432;2023-10-09T12:48:11;22.70;99.90
25300;DHT22;13241;51.208;4.432;2023-10-09T12:50:41;22.60;99.90
25300;DHT22;13241;51.208;4.432;2023-10-09T12:53:08;22.60;99.90
25300;DHT22;13241;51.208;4.432;2023-10-09T12:55:39;22.60;99.90
25300;DHT22;13241;51.208;4.432;2023-10-09T12:58:10;22.60;99.90
25300;DHT22;13241;51.208;4.432;2023-10-09T13:00:42;22.70;99.90
25300;DHT22;13241;51.208;4.432;2023-10-09T13:03:17;22.80;99.90
25300;DHT22;13241;51.208;4.432;2023-10-09T13:05:52;22.90;99.90
25300;DHT22;13241;51.208;4.432;2023-10-09T13:08:24;23.10;99.90
25300;DHT22;13241;51.208;4.432;2023-10-09T13:11:03;23.20;99.90
25300;DHT22;13241;51.208;4.432;2023-10-09T13:13:39;23.50;99.90
25300;DHT22;13241;51.208;4.432;2023-10-09T13:16:19;23.60;99.90
25300;DHT22;13241;51.208;4.432;2023-10-09T13:18:54;23.50;99.90
25300;DHT22;13241;51.208;4.432;2023-10-09T13:21:22;23.30;99.90
25300;DHT22;13241;51.208;4.432;2023-10-09T13:23:50;23.30;99.90
25300;DHT22;13241;51.208;4.432;2023-10-09T13:26:18;23.10;99.90
25300;DHT22;13241;51.208;4.432;2023-10-09T13:28:49;23.00;99.90
25300;DHT22;13241;51.208;4.432;2023-10-09T13:31:17;23.00;99.90
25300;DHT22;13241;51.208;4.432;2023-10-09T13:33:44;22.90;99.90
25300;DHT22;13241;51.208;4.432;2023-10-09T13:36:13;22.80;99.90
25300;DHT22;13241;51.208;4.432;2023-10-09T13:38:54;22.90;99.90
25300;DHT22;13241;51.208;4.432;2023-10-09T13:41:23;22.90;99.90
25300;DHT22;13241;51.208;4.432;2023-10-09T13:43:55;22.90;99.90
25300;DHT22;13241;51.208;4.432;2023-10-09T13:46:23;22.80;99.90
25300;DHT22;13241;51.208;4.432;2023-10-09T13:48:51;22.70;99.90
25300;DHT22;13241;51.208;4.432;2023-10-09T13:51:19;22.60;99.90
25300;DHT22;13241;51.208;4.432;2023-10-09T13:53:50;22.60;99.90
25300;DHT22;13241;51.208;4.432;2023-10-09T13:56:18;22.60;99.90
25300;DHT22;13241;51.208;4.432;2023-10-09T13:58:50;22.60;99.90
25300;DHT22;13241;51.208;4.432;2023-10-09T14:01:18;22.60;99.90
25300;DHT22;13241;51.208;4.432;2023-10-09T14:04:03;22.60;99.90
25300;DHT22;13241;51.208;4.432;2023-10-09T14:06:33;22.60;99.90
25300;DHT22;13241;51.208;4.432;2023-10-09T14:09:04;22.60;99.90
25300;DHT22;13241;51.208;4.432;2023-10-09T14:11:32;22.50;99.90
25300;DHT22;13241;51.208;4.432;2023-10-09T14:13:59;22.40;99.90
25300;DHT22;13241;51.208;4.432;2023-10-09T14:16:38;22.30;99.90
25300;DHT22;13241;51.208;4.432;2023-10-09T14:19:09;22.30;99.90
25300;DHT22;13241;51.208;4.432;2023-10-09T14:21:40;22.30;99.90
25300;DHT22;13241;51.208;4.432;2023-10-09T14:24:08;22.60;99.90
25300;DHT22;13241;51.208;4.432;2023-10-09T14:26:46;22.90;99.90
25300;DHT22;13241;51.208;4.432;2023-10-09T14:29:14;23.10;99.90
25300;DHT22;13241;51.208;4.432;2023-10-09T14:31:44;23.40;99.90
25300;DHT22;13241;51.208;4.432;2023-10-09T14:34:16;23.30;99.90
25300;DHT22;13241;51.208;4.432;2023-10-09T14:36:43;23.20;99.90
25300;DHT22;13241;51.208;4.432;2023-10-09T14:39:10;22.90;99.90
25300;DHT22;13241;51.208;4.432;2023-10-09T14:41:45;22.60;99.90
25300;DHT22;13241;51.208;4.432;2023-10-09T14:44:12;22.40;99.90
25300;DHT22;13241;51.208;4.432;2023-10-09T14:46:43;22.20;99.90
25300;DHT22;13241;51.208;4.432;2023-10-09T14:49:10;22.10;99.90
25300;DHT22;13241;51.208;4.432;2023-10-09T14:51:43;21.90;99.90
25300;DHT22;13241;51.208;4.432;2023-10-09T14:54:11;21.70;99.90
25300;DHT22;13241;51.208;4.432;2023-10-09T14:56:42;22.00;99.90
25300;DHT22;13241;51.208;4.432;2023-10-09T14:59:09;23.00;99.90
25300;DHT22;13241;51.208;4.432;2023-10-09T15:01:38;24.30;99.90
25300;DHT22;13241;51.208;4.432;2023-10-09T15:04:05;25.20;99.90
25300;DHT22;13241;51.208;4.432;2023-10-09T15:06:34;25.40;99.90
25300;DHT22;13241;51.208;4.432;2023-10-09T15:09:02;25.00;99.90
25300;DHT22;13241;51.208;4.432;2023-10-09T15:11:35;24.50;99.90
25300;DHT22;13241;51.208;4.432;2023-10-09T15:14:05;24.00;99.90
25300;DHT22;13241;51.208;4.432;2023-10-09T15:16:33;23.80;99.90
25300;DHT22;13241;51.208;4.432;2023-10-09T15:19:00;24.10;99.90
25300;DHT22;13241;51.208;4.432;2023-10-09T15:21:30;24.80;99.90
25300;DHT22;13241;51.208;4.432;2023-10-09T15:24:00;25.40;99.90
25300;DHT22;13241;51.208;4.432;2023-10-09T15:26:27;25.80;99.90
25300;DHT22;13241;51.208;4.432;2023-10-09T15:29:02;25.10;99.90
25300;DHT22;13241;51.208;4.432;2023-10-09T15:31:30;24.50;99.90
25300;DHT22;13241;51.208;4.432;2023-10-09T15:33:59;23.80;99.90
25300;DHT22;13241;51.208;4.432;2023-10-09T15:36:26;23.20;99.90
25300;DHT22;13241;51.208;4.432;2023-10-09T15:38:55;22.80;99.90
25300;DHT22;13241;51.208;4.432;2023-10-09T15:41:29;22.40;99.90
25300;DHT22;13241;51.208;4.432;2023-10-09T15:43:57;22.10;99.90
25300;DHT22;13241;51.208;4.432;2023-10-09T15:46:24;21.90;99.90
25300;DHT22;13241;51.208;4.432;2023-10-09T15:48:52;21.80;99.90
25300;DHT22;13241;51.208;4.432;2023-10-09T15:51:22;21.70;99.90
25300;DHT22;13241;51.208;4.432;2023-10-09T15:53:49;21.60;99.90
25300;DHT22;13241;51.208;4.432;2023-10-09T15:56:18;21.50;99.90
25300;DHT22;13241;51.208;4.432;2023-10-09T15:58:45;21.40;99.90
25300;DHT22;13241;51.208;4.432;2023-10-09T16:01:14;21.30;99.90
25300;DHT22;13241;51.208;4.432;2023-10-09T16:03:42;21.20;99.90
25300;DHT22;13241;51.208;4.432;2023-10-09T16:06:10;21.10;99.90
25300;DHT22;13241;51.208;4.432;2023-10-09T16:08:41;21.00;99.90
25300;DHT22;13241;51.208;4.432;2023-10-09T16:11:08;20.90;99.90
25300;DHT22;13241;51.208;4.432;2023-10-09T16:13:35;20.90;99.90
25300;DHT22;13241;51.208;4.432;2023-10-09T16:16:05;20.80;99.90
25300;DHT22;13241;51.208;4.432;2023-10-09T16:18:36;20.80;99.90
25300;DHT22;13241;51.208;4.432;2023-10-09T16:21:05;20.70;99.90
25300;DHT22;13241;51.208;4.432;2023-10-09T16:23:34;20.60;99.90
25300;DHT22;13241;51.208;4.432;2023-10-09T16:26:01;20.50;99.90
25300;DHT22;13241;51.208;4.432;2023-10-09T16:28:28;20.50;99.90
25300;DHT22;13241;51.208;4.432;2023-10-09T16:30:55;20.40;99.90
25300;DHT22;13241;51.208;4.432;2023-10-09T16:33:23;20.40;99.90
25300;DHT22;13241;51.208;4.432;2023-10-09T16:35:52;20.30;99.90